Capetan Vassilis — C6S2085 — position and weather

sailwx.info

Track history (hours):
 
Tides and Currents Weather Stations Pressure Air Temp Water Temp Dewpoint Dewpoint Depression Visibility Wind Speed Wind Dir Waves Ship Positions

Capetan Vassilis

Last reported at 2015-Apr-20 21:33 UTC. Time now 2015-Apr-28 05:19 UTC.
Position N 57°46' E 018°03'.

Length 191 m; draft 7 m.

MMSI: 311552000.

Date/timePositionNaut miles runAvg speedWind from/ knotsBaromVisibWave heightAir tempDewpointWater temp
2015-Apr-20 21:33N 57°46' E 018°03'1413.8
2015-Apr-20 20:31N 57°32' E 017°53'17512.5
2015-Apr-20 06:32N 55°18' E 014°31'1212.0
2015-Apr-20 05:33N 55°09' E 014°17'1313.1
2015-Apr-20 04:33N 55°11' E 013°55'1313.1
2015-Apr-20 03:33N 55°12' E 013°31'1413.4
2015-Apr-20 02:32N 55°14' E 013°08'1313.6
2015-Apr-20 01:33N 55°17' E 012°45'1111.1
2015-Apr-20 00:33N 55°27' E 012°40'10 9.8
2015-Apr-19 23:33N 55°37' E 012°42'1313.0
2015-Apr-19 22:33N 55°50' E 012°41'1312.8
2015-Apr-19 21:33N 56°03' E 012°39'1010.3
2015-Apr-19 20:33N 56°09' E 012°25'8 7.7
2015-Apr-19 19:33N 56°13' E 012°13'1110.8
2015-Apr-19 18:34N 56°22' E 012°02'1513.8
2015-Apr-19 17:30N 56°36' E 011°55'1414.4
2015-Apr-19 16:33N 56°50' E 011°48'1514.7
2015-Apr-19 15:33N 57°03' E 011°39'1414.3
2015-Apr-19 14:34N 57°17' E 011°31'1413.8
2015-Apr-19 13:33N 57°29' E 011°20'1414.2
2015-Apr-19 12:33N 57°39' E 010°60'1413.6
2015-Apr-19 11:33N 57°47' E 010°39'1513.3
2015-Apr-19 10:25N 57°46' E 010°11'24311.4
2015-Apr-18 13:05N 54°51' E 005°08'2312.8
2015-Apr-18 11:18N 54°30' E 004°53'1213.0
2015-Apr-18 10:23N 54°19' E 004°46'1113.2
2015-Apr-18 09:31N 54°08' E 004°39'1313.1
2015-Apr-18 08:33N 53°56' E 004°37'1313.4
2015-Apr-18 07:33N 53°46' E 004°21'1313.5
2015-Apr-18 06:33N 53°38' E 004°03'1413.6
2015-Apr-18 05:33N 53°30' E 003°45'1813.7
2015-Apr-18 04:15N 53°14' E 003°32'1014.2
2015-Apr-18 03:33N 53°04' E 003°26'40 9.9
2015-Apr-17 23:32N 52°25' E 003°13'1713.1
2015-Apr-17 22:16N 52°09' E 003°10'2311.0
2015-Apr-17 20:08N 51°45' E 003°11'610.4
2015-Apr-17 19:32N 51°41' E 003°18'1010.3
2015-Apr-17 18:34N 51°32' E 003°25'1010.4
2015-Apr-17 17:34N 51°26' E 003°40'9 8.7
2015-Apr-17 16:32N 51°20' E 003°49'3 3.5
2015-Apr-17 15:33N 51°16' E 003°50'4 3.9
2015-Apr-17 14:33N 51°13' E 003°48'4 3.4
2015-Apr-17 13:32N 51°09' E 003°47'0 0.0
2015-Apr-17 12:32N 51°09' E 003°47'0 0.0
2015-Apr-17 11:32N 51°09' E 003°47'0 0.0
2015-Apr-17 10:32N 51°09' E 003°47'0 0.0
2015-Apr-17 09:26N 51°09' E 003°47'0 0.0
2015-Apr-17 08:32N 51°09' E 003°47'0 0.0
2015-Apr-17 07:32N 51°09' E 003°47'0 0.0
2015-Apr-17 06:31N 51°09' E 003°47'0 0.0
2015-Apr-17 05:31N 51°09' E 003°47'0 0.0
2015-Apr-17 04:31N 51°09' E 003°47'0 0.0
2015-Apr-17 03:31N 51°09' E 003°47'0 0.0
2015-Apr-17 02:31N 51°09' E 003°47'0 0.0
2015-Apr-17 01:31N 51°09' E 003°47'0 0.0
2015-Apr-17 00:31N 51°09' E 003°47'0 0.0
2015-Apr-16 23:31N 51°09' E 003°47'0 0.0
2015-Apr-16 22:31N 51°09' E 003°47'0 0.0
2015-Apr-16 21:31N 51°09' E 003°47'0 0.0
2015-Apr-16 20:31N 51°09' E 003°47'0 0.0
2015-Apr-16 19:31N 51°09' E 003°47'0 0.0
2015-Apr-16 18:31N 51°09' E 003°47'0 0.0
2015-Apr-16 17:31N 51°09' E 003°47'0 0.0
2015-Apr-16 16:31N 51°09' E 003°47'0 0.0
2015-Apr-16 15:32N 51°09' E 003°47'0 0.0
2015-Apr-16 14:31N 51°09' E 003°47'0 0.0
2015-Apr-16 13:31N 51°09' E 003°47'0 0.0
2015-Apr-16 12:28N 51°09' E 003°47'0 0.0
2015-Apr-16 11:31N 51°09' E 003°47'0 0.0
2015-Apr-16 10:28N 51°09' E 003°47'0 0.0
2015-Apr-16 09:31N 51°09' E 003°47'0 0.0
2015-Apr-16 08:31N 51°09' E 003°47'0 0.0
2015-Apr-16 07:31N 51°09' E 003°47'0 0.0
2015-Apr-16 06:31N 51°09' E 003°47'0 0.0
2015-Apr-16 05:32N 51°09' E 003°47'0 0.0
2015-Apr-16 04:31N 51°09' E 003°47'0 0.0
2015-Apr-16 03:31N 51°09' E 003°47'0 0.0
2015-Apr-16 02:31N 51°09' E 003°47'0 0.0
2015-Apr-16 01:31N 51°09' E 003°47'0 0.0
2015-Apr-16 00:31N 51°09' E 003°47'0 0.0
2015-Apr-15 23:31N 51°09' E 003°47'0 0.0
2015-Apr-15 22:25N 51°09' E 003°47'0 0.0
2015-Apr-15 21:25N 51°09' E 003°47'0 0.0
2015-Apr-15 20:33N 51°09' E 003°47'0 0.0
2015-Apr-15 19:28N 51°09' E 003°47'0 0.0
2015-Apr-15 18:30N 51°09' E 003°47'0 0.0
2015-Apr-15 17:33N 51°09' E 003°47'0 0.0
2015-Apr-15 16:33N 51°09' E 003°47'0 0.0
2015-Apr-15 15:30N 51°09' E 003°47'0 0.0
2015-Apr-15 14:30N 51°09' E 003°47'0 0.0
2015-Apr-15 13:33N 51°09' E 003°47'0 0.0
2015-Apr-15 12:33N 51°09' E 003°47'0 0.0
2015-Apr-15 11:30N 51°09' E 003°47'0 0.0
2015-Apr-15 10:33N 51°09' E 003°47'0 0.0
2015-Apr-15 09:21N 51°09' E 003°47'0 0.0
2015-Apr-15 08:30N 51°09' E 003°47'0 0.0
2015-Apr-15 07:33N 51°09' E 003°47'0 0.0
2015-Apr-15 06:33N 51°09' E 003°47'0 0.0
2015-Apr-15 05:33N 51°09' E 003°47'0 0.0
2015-Apr-15 04:33N 51°09' E 003°47'0 0.0
2015-Apr-15 03:33N 51°09' E 003°47'0 0.0
2015-Apr-15 02:30N 51°09' E 003°47'0 0.0
2015-Apr-15 01:30N 51°09' E 003°47'0 0.0
2015-Apr-15 00:33N 51°09' E 003°47'0 0.0
2015-Apr-14 23:33N 51°09' E 003°47'0 0.0
2015-Apr-14 22:33N 51°09' E 003°47'0 0.0
2015-Apr-14 21:33N 51°09' E 003°47'0 0.0
2015-Apr-14 20:33N 51°09' E 003°47'0 0.0
2015-Apr-14 19:33N 51°09' E 003°47'0 0.0
2015-Apr-14 18:33N 51°09' E 003°47'0 0.0
2015-Apr-14 17:33N 51°09' E 003°47'0 0.0
2015-Apr-14 16:33N 51°09' E 003°47'0 0.0
2015-Apr-14 15:33N 51°09' E 003°47'0 0.0
2015-Apr-14 14:30N 51°09' E 003°47'0 0.0
2015-Apr-14 13:24N 51°09' E 003°47'0 0.0
2015-Apr-14 12:30N 51°09' E 003°47'0 0.0
2015-Apr-14 11:32N 51°09' E 003°47'0 0.0
2015-Apr-14 10:29N 51°09' E 003°47'0 0.0
2015-Apr-14 09:29N 51°09' E 003°47'0 0.0
2015-Apr-14 08:29N 51°09' E 003°47'0 0.0
2015-Apr-14 07:29N 51°09' E 003°47'0 0.0
2015-Apr-14 06:32N 51°09' E 003°47'0 0.0
2015-Apr-14 05:29N 51°09' E 003°47'0 0.0
2015-Apr-14 04:33N 51°09' E 003°47'0 0.0
2015-Apr-14 03:32N 51°09' E 003°47'0 0.0
2015-Apr-14 02:23N 51°09' E 003°47'0 0.0
2015-Apr-14 01:29N 51°09' E 003°47'0 0.0
2015-Apr-14 00:32N 51°09' E 003°47'0 0.0
2015-Apr-13 23:32N 51°09' E 003°47'0 0.0
2015-Apr-13 22:32N 51°09' E 003°47'0 0.0
2015-Apr-13 21:23N 51°09' E 003°47'0 0.0
2015-Apr-13 20:29N 51°09' E 003°47'0 0.0
2015-Apr-13 19:26N 51°09' E 003°47'0 0.0
2015-Apr-13 18:29N 51°09' E 003°47'0 0.0
2015-Apr-13 17:29N 51°09' E 003°47'0 0.0
2015-Apr-13 16:29N 51°09' E 003°47'0 0.0
2015-Apr-13 15:26N 51°09' E 003°47'0 0.0
2015-Apr-13 14:28N 51°09' E 003°47'0 0.0
2015-Apr-13 13:26N 51°09' E 003°47'0 0.0
2015-Apr-13 12:32N 51°09' E 003°47'0 0.0
2015-Apr-13 11:28N 51°09' E 003°47'0 0.0
2015-Apr-13 10:31N 51°09' E 003°47'0 0.0
2015-Apr-13 09:31N 51°09' E 003°47'0 0.0
2015-Apr-13 08:28N 51°09' E 003°47'0 0.0
2015-Apr-13 07:28N 51°09' E 003°47'0 0.0
2015-Apr-13 06:22N 51°09' E 003°47'0 0.0
2015-Apr-13 05:28N 51°09' E 003°47'0 0.0
2015-Apr-13 04:28N 51°09' E 003°47'0 0.0
2015-Apr-13 03:28N 51°09' E 003°47'0 0.0
2015-Apr-13 02:31N 51°09' E 003°47'0 0.0
2015-Apr-13 01:31N 51°09' E 003°47'0 0.0
2015-Apr-13 00:31N 51°09' E 003°47'0 0.0
2015-Apr-12 23:31N 51°09' E 003°47'0 0.0
2015-Apr-12 22:33N 51°09' E 003°47'0 0.0
2015-Apr-12 21:31N 51°09' E 003°47'0 0.0
2015-Apr-12 20:31N 51°09' E 003°47'0 0.0
2015-Apr-12 19:31N 51°09' E 003°47'0 0.0
2015-Apr-12 18:28N 51°09' E 003°47'0 0.0
2015-Apr-12 17:28N 51°09' E 003°47'0 0.0
2015-Apr-12 16:25N 51°09' E 003°47'0 0.0
2015-Apr-12 15:28N 51°09' E 003°47'0 0.0
2015-Apr-12 14:28N 51°09' E 003°47'0 0.0
2015-Apr-12 13:28N 51°09' E 003°47'0 0.0
2015-Apr-12 12:28N 51°09' E 003°47'0 0.0
2015-Apr-12 11:28N 51°09' E 003°47'0 0.0
2015-Apr-12 10:31N 51°09' E 003°47'0 0.0
2015-Apr-12 09:31N 51°09' E 003°47'0 0.0
2015-Apr-12 08:31N 51°09' E 003°47'0 0.0
2015-Apr-12 07:28N 51°09' E 003°47'0 0.0
2015-Apr-12 06:34N 51°09' E 003°47'4 4.0
2015-Apr-12 05:33N 51°13' E 003°48'5 4.8
2015-Apr-12 04:33N 51°18' E 003°50'2 2.0
2015-Apr-12 03:33N 51°20' E 003°49'3 2.8
2015-Apr-12 02:33N 51°22' E 003°46'3 3.1
2015-Apr-12 01:33N 51°24' E 003°43'8 7.5
2015-Apr-12 00:33N 51°25' E 003°30'1010.2
2015-Apr-11 23:33N 51°24' E 003°14'9 9.6
2015-Apr-11 22:33N 51°23' E 002°59'1010.2
2015-Apr-11 21:34N 51°22' E 002°43'7 7.3
2015-Apr-11 20:33N 51°22' E 002°31'9 8.7
2015-Apr-11 19:33N 51°19' E 002°18'7 7.5
2015-Apr-11 18:33N 51°15' E 002°08'8 8.0
2015-Apr-11 17:33N 51°11' E 001°57'8 8.4
2015-Apr-11 16:33N 51°05' E 001°46'1110.9
2015-Apr-11 15:33N 50°58' E 001°34'1211.4
2015-Apr-11 14:30N 50°47' E 001°24'1112.1
2015-Apr-11 13:33N 50°38' E 001°13'  
Track history (hours):
 
Tides and Currents Weather Stations Pressure Air Temp Water Temp Dewpoint Dewpoint Depression Visibility Wind Speed Wind Dir Waves Ship Positions

Capetan Vassilis

Last reported at 2015-Apr-20 21:33 UTC. Time now 2015-Apr-28 05:19 UTC.
Position N 57°46' E 018°03'.

Length 191 m; draft 7 m.

MMSI: 311552000.

Date/timePositionNaut miles runAvg speedWind from/ knotsBaromVisibWave heightAir tempDewpointWater temp
2015-Apr-20 21:33N 57°46' E 018°03'1413.8
2015-Apr-20 20:31N 57°32' E 017°53'17512.5
2015-Apr-20 06:32N 55°18' E 014°31'1212.0
2015-Apr-20 05:33N 55°09' E 014°17'1313.1
2015-Apr-20 04:33N 55°11' E 013°55'1313.1
2015-Apr-20 03:33N 55°12' E 013°31'1413.4
2015-Apr-20 02:32N 55°14' E 013°08'1313.6
2015-Apr-20 01:33N 55°17' E 012°45'1111.1
2015-Apr-20 00:33N 55°27' E 012°40'10 9.8
2015-Apr-19 23:33N 55°37' E 012°42'1313.0
2015-Apr-19 22:33N 55°50' E 012°41'1312.8
2015-Apr-19 21:33N 56°03' E 012°39'1010.3
2015-Apr-19 20:33N 56°09' E 012°25'8 7.7
2015-Apr-19 19:33N 56°13' E 012°13'1110.8
2015-Apr-19 18:34N 56°22' E 012°02'1513.8
2015-Apr-19 17:30N 56°36' E 011°55'1414.4
2015-Apr-19 16:33N 56°50' E 011°48'1514.7
2015-Apr-19 15:33N 57°03' E 011°39'1414.3
2015-Apr-19 14:34N 57°17' E 011°31'1413.8
2015-Apr-19 13:33N 57°29' E 011°20'1414.2
2015-Apr-19 12:33N 57°39' E 010°60'1413.6
2015-Apr-19 11:33N 57°47' E 010°39'1513.3
2015-Apr-19 10:25N 57°46' E 010°11'24311.4
2015-Apr-18 13:05N 54°51' E 005°08'2312.8
2015-Apr-18 11:18N 54°30' E 004°53'1213.0
2015-Apr-18 10:23N 54°19' E 004°46'1113.2
2015-Apr-18 09:31N 54°08' E 004°39'1313.1
2015-Apr-18 08:33N 53°56' E 004°37'1313.4
2015-Apr-18 07:33N 53°46' E 004°21'1313.5
2015-Apr-18 06:33N 53°38' E 004°03'1413.6
2015-Apr-18 05:33N 53°30' E 003°45'1813.7
2015-Apr-18 04:15N 53°14' E 003°32'1014.2
2015-Apr-18 03:33N 53°04' E 003°26'40 9.9
2015-Apr-17 23:32N 52°25' E 003°13'1713.1
2015-Apr-17 22:16N 52°09' E 003°10'2311.0
2015-Apr-17 20:08N 51°45' E 003°11'610.4
2015-Apr-17 19:32N 51°41' E 003°18'1010.3
2015-Apr-17 18:34N 51°32' E 003°25'1010.4
2015-Apr-17 17:34N 51°26' E 003°40'9 8.7
2015-Apr-17 16:32N 51°20' E 003°49'3 3.5
2015-Apr-17 15:33N 51°16' E 003°50'4 3.9
2015-Apr-17 14:33N 51°13' E 003°48'4 3.4
2015-Apr-17 13:32N 51°09' E 003°47'0 0.0
2015-Apr-17 12:32N 51°09' E 003°47'0 0.0
2015-Apr-17 11:32N 51°09' E 003°47'0 0.0
2015-Apr-17 10:32N 51°09' E 003°47'0 0.0
2015-Apr-17 09:26N 51°09' E 003°47'0 0.0
2015-Apr-17 08:32N 51°09' E 003°47'0 0.0
2015-Apr-17 07:32N 51°09' E 003°47'0 0.0
2015-Apr-17 06:31N 51°09' E 003°47'0 0.0
2015-Apr-17 05:31N 51°09' E 003°47'0 0.0
2015-Apr-17 04:31N 51°09' E 003°47'0 0.0
2015-Apr-17 03:31N 51°09' E 003°47'0 0.0
2015-Apr-17 02:31N 51°09' E 003°47'0 0.0
2015-Apr-17 01:31N 51°09' E 003°47'0 0.0
2015-Apr-17 00:31N 51°09' E 003°47'0 0.0
2015-Apr-16 23:31N 51°09' E 003°47'0 0.0
2015-Apr-16 22:31N 51°09' E 003°47'0 0.0
2015-Apr-16 21:31N 51°09' E 003°47'0 0.0
2015-Apr-16 20:31N 51°09' E 003°47'0 0.0
2015-Apr-16 19:31N 51°09' E 003°47'0 0.0
2015-Apr-16 18:31N 51°09' E 003°47'0 0.0
2015-Apr-16 17:31N 51°09' E 003°47'0 0.0
2015-Apr-16 16:31N 51°09' E 003°47'0 0.0
2015-Apr-16 15:32N 51°09' E 003°47'0 0.0
2015-Apr-16 14:31N 51°09' E 003°47'0 0.0
2015-Apr-16 13:31N 51°09' E 003°47'0 0.0
2015-Apr-16 12:28N 51°09' E 003°47'0 0.0
2015-Apr-16 11:31N 51°09' E 003°47'0 0.0
2015-Apr-16 10:28N 51°09' E 003°47'0 0.0
2015-Apr-16 09:31N 51°09' E 003°47'0 0.0
2015-Apr-16 08:31N 51°09' E 003°47'0 0.0
2015-Apr-16 07:31N 51°09' E 003°47'0 0.0
2015-Apr-16 06:31N 51°09' E 003°47'0 0.0
2015-Apr-16 05:32N 51°09' E 003°47'0 0.0
2015-Apr-16 04:31N 51°09' E 003°47'0 0.0
2015-Apr-16 03:31N 51°09' E 003°47'0 0.0
2015-Apr-16 02:31N 51°09' E 003°47'0 0.0
2015-Apr-16 01:31N 51°09' E 003°47'0 0.0
2015-Apr-16 00:31N 51°09' E 003°47'0 0.0
2015-Apr-15 23:31N 51°09' E 003°47'0 0.0
2015-Apr-15 22:25N 51°09' E 003°47'0 0.0
2015-Apr-15 21:25N 51°09' E 003°47'0 0.0
2015-Apr-15 20:33N 51°09' E 003°47'0 0.0
2015-Apr-15 19:28N 51°09' E 003°47'0 0.0
2015-Apr-15 18:30N 51°09' E 003°47'0 0.0
2015-Apr-15 17:33N 51°09' E 003°47'0 0.0
2015-Apr-15 16:33N 51°09' E 003°47'0 0.0
2015-Apr-15 15:30N 51°09' E 003°47'0 0.0
2015-Apr-15 14:30N 51°09' E 003°47'0 0.0
2015-Apr-15 13:33N 51°09' E 003°47'0 0.0
2015-Apr-15 12:33N 51°09' E 003°47'0 0.0
2015-Apr-15 11:30N 51°09' E 003°47'0 0.0
2015-Apr-15 10:33N 51°09' E 003°47'0 0.0
2015-Apr-15 09:21N 51°09' E 003°47'0 0.0
2015-Apr-15 08:30N 51°09' E 003°47'0 0.0
2015-Apr-15 07:33N 51°09' E 003°47'0 0.0
2015-Apr-15 06:33N 51°09' E 003°47'0 0.0
2015-Apr-15 05:33N 51°09' E 003°47'0 0.0
2015-Apr-15 04:33N 51°09' E 003°47'0 0.0
2015-Apr-15 03:33N 51°09' E 003°47'0 0.0
2015-Apr-15 02:30N 51°09' E 003°47'0 0.0
2015-Apr-15 01:30N 51°09' E 003°47'0 0.0
2015-Apr-15 00:33N 51°09' E 003°47'0 0.0
2015-Apr-14 23:33N 51°09' E 003°47'0 0.0
2015-Apr-14 22:33N 51°09' E 003°47'0 0.0
2015-Apr-14 21:33N 51°09' E 003°47'0 0.0
2015-Apr-14 20:33N 51°09' E 003°47'0 0.0
2015-Apr-14 19:33N 51°09' E 003°47'0 0.0
2015-Apr-14 18:33N 51°09' E 003°47'0 0.0
2015-Apr-14 17:33N 51°09' E 003°47'0 0.0
2015-Apr-14 16:33N 51°09' E 003°47'0 0.0
2015-Apr-14 15:33N 51°09' E 003°47'0 0.0
2015-Apr-14 14:30N 51°09' E 003°47'0 0.0
2015-Apr-14 13:24N 51°09' E 003°47'0 0.0
2015-Apr-14 12:30N 51°09' E 003°47'0 0.0
2015-Apr-14 11:32N 51°09' E 003°47'0 0.0
2015-Apr-14 10:29N 51°09' E 003°47'0 0.0
2015-Apr-14 09:29N 51°09' E 003°47'0 0.0
2015-Apr-14 08:29N 51°09' E 003°47'0 0.0
2015-Apr-14 07:29N 51°09' E 003°47'0 0.0
2015-Apr-14 06:32N 51°09' E 003°47'0 0.0
2015-Apr-14 05:29N 51°09' E 003°47'0 0.0
2015-Apr-14 04:33N 51°09' E 003°47'0 0.0
2015-Apr-14 03:32N 51°09' E 003°47'0 0.0
2015-Apr-14 02:23N 51°09' E 003°47'0 0.0
2015-Apr-14 01:29N 51°09' E 003°47'0 0.0
2015-Apr-14 00:32N 51°09' E 003°47'0 0.0
2015-Apr-13 23:32N 51°09' E 003°47'0 0.0
2015-Apr-13 22:32N 51°09' E 003°47'0 0.0
2015-Apr-13 21:23N 51°09' E 003°47'0 0.0
2015-Apr-13 20:29N 51°09' E 003°47'0 0.0
2015-Apr-13 19:26N 51°09' E 003°47'0 0.0
2015-Apr-13 18:29N 51°09' E 003°47'0 0.0
2015-Apr-13 17:29N 51°09' E 003°47'0 0.0
2015-Apr-13 16:29N 51°09' E 003°47'0 0.0
2015-Apr-13 15:26N 51°09' E 003°47'0 0.0
2015-Apr-13 14:28N 51°09' E 003°47'0 0.0
2015-Apr-13 13:26N 51°09' E 003°47'0 0.0
2015-Apr-13 12:32N 51°09' E 003°47'0 0.0
2015-Apr-13 11:28N 51°09' E 003°47'0 0.0
2015-Apr-13 10:31N 51°09' E 003°47'0 0.0
2015-Apr-13 09:31N 51°09' E 003°47'0 0.0
2015-Apr-13 08:28N 51°09' E 003°47'0 0.0
2015-Apr-13 07:28N 51°09' E 003°47'0 0.0
2015-Apr-13 06:22N 51°09' E 003°47'0 0.0
2015-Apr-13 05:28N 51°09' E 003°47'0 0.0
2015-Apr-13 04:28N 51°09' E 003°47'0 0.0
2015-Apr-13 03:28N 51°09' E 003°47'0 0.0
2015-Apr-13 02:31N 51°09' E 003°47'0 0.0
2015-Apr-13 01:31N 51°09' E 003°47'0 0.0
2015-Apr-13 00:31N 51°09' E 003°47'0 0.0
2015-Apr-12 23:31N 51°09' E 003°47'0 0.0
2015-Apr-12 22:33N 51°09' E 003°47'0 0.0
2015-Apr-12 21:31N 51°09' E 003°47'0 0.0
2015-Apr-12 20:31N 51°09' E 003°47'0 0.0
2015-Apr-12 19:31N 51°09' E 003°47'0 0.0
2015-Apr-12 18:28N 51°09' E 003°47'0 0.0
2015-Apr-12 17:28N 51°09' E 003°47'0 0.0
2015-Apr-12 16:25N 51°09' E 003°47'0 0.0
2015-Apr-12 15:28N 51°09' E 003°47'0 0.0
2015-Apr-12 14:28N 51°09' E 003°47'0 0.0
2015-Apr-12 13:28N 51°09' E 003°47'0 0.0
2015-Apr-12 12:28N 51°09' E 003°47'0 0.0
2015-Apr-12 11:28N 51°09' E 003°47'0 0.0
2015-Apr-12 10:31N 51°09' E 003°47'0 0.0
2015-Apr-12 09:31N 51°09' E 003°47'0 0.0
2015-Apr-12 08:31N 51°09' E 003°47'0 0.0
2015-Apr-12 07:28N 51°09' E 003°47'0 0.0
2015-Apr-12 06:34N 51°09' E 003°47'4 4.0
2015-Apr-12 05:33N 51°13' E 003°48'5 4.8
2015-Apr-12 04:33N 51°18' E 003°50'2 2.0
2015-Apr-12 03:33N 51°20' E 003°49'3 2.8
2015-Apr-12 02:33N 51°22' E 003°46'3 3.1
2015-Apr-12 01:33N 51°24' E 003°43'8 7.5
2015-Apr-12 00:33N 51°25' E 003°30'1010.2
2015-Apr-11 23:33N 51°24' E 003°14'9 9.6
2015-Apr-11 22:33N 51°23' E 002°59'1010.2
2015-Apr-11 21:34N 51°22' E 002°43'7 7.3
2015-Apr-11 20:33N 51°22' E 002°31'9 8.7
2015-Apr-11 19:33N 51°19' E 002°18'7 7.5
2015-Apr-11 18:33N 51°15' E 002°08'8 8.0
2015-Apr-11 17:33N 51°11' E 001°57'8 8.4
2015-Apr-11 16:33N 51°05' E 001°46'1110.9
2015-Apr-11 15:33N 50°58' E 001°34'1211.4
2015-Apr-11 14:30N 50°47' E 001°24'1112.1
2015-Apr-11 13:33N 50°38' E 001°13'  

Dump ship's entire track history